Time;durP1;ratioP1;P1;durP2;ratioP2;P2;SDS_P1;SDS_P2;PMS_P1;PMS_P2;Temp;Humidity;BMP_temperature;BMP_pressure;BME280_temperature;BME280_humidity;BME280_pressure;Samples;Min_cycle;Max_cycle;Signal;HPM_P1;HPM_P2
2022/08/25 00:01:35;;;;;;;9.38;8.18;;;23.20;99.90;;;;;;5048732;28;47153;-75
2022/08/25 00:04:04;;;;;;;7.38;6.72;;;23.20;99.90;;;;;;5050500;28;39701;-75
2022/08/25 00:06:31;;;;;;;8.98;8.15;;;23.20;99.90;;;;;;5059027;28;36630;-75
2022/08/25 00:08:58;;;;;;;7.97;7.15;;;23.20;99.90;;;;;;5052317;28;39576;-75
2022/08/25 00:11:28;;;;;;;12.25;7.78;;;23.20;99.90;;;;;;5051370;28;37431;-75
2022/08/25 00:13:57;;;;;;;10.07;9.18;;;23.10;99.90;;;;;;5068883;28;39361;-75
2022/08/25 00:16:25;;;;;;;8.60;7.65;;;23.10;99.90;;;;;;5055955;28;36998;-75
2022/08/25 00:18:54;;;;;;;10.00;7.90;;;23.10;99.90;;;;;;5057550;28;39226;-75
2022/08/25 00:21:21;;;;;;;10.65;9.65;;;23.10;99.90;;;;;;5071515;28;36409;-75
2022/08/25 00:23:48;;;;;;;10.63;8.52;;;23.10;99.90;;;;;;5060011;27;39544;-75
2022/08/25 00:26:15;;;;;;;10.38;9.38;;;23.10;99.90;;;;;;5036063;28;40091;-75
2022/08/25 00:28:42;;;;;;;11.35;10.27;;;23.10;99.90;;;;;;5052748;28;38330;-75
2022/08/25 00:31:14;;;;;;;8.15;7.35;;;23.10;99.90;;;;;;5052868;28;36757;-75
2022/08/25 00:33:43;;;;;;;10.63;9.68;;;23.10;99.90;;;;;;5032770;28;39657;-75
2022/08/25 00:36:11;;;;;;;10.93;9.82;;;23.00;99.90;;;;;;5051250;28;39109;-75
2022/08/25 00:38:45;;;;;;;12.98;8.77;;;23.10;99.90;;;;;;5040028;28;38898;-75
2022/08/25 00:41:17;;;;;;;9.85;8.63;;;23.10;99.90;;;;;;5047182;28;38935;-75
2022/08/25 00:43:48;;;;;;;8.73;7.68;;;23.10;99.90;;;;;;5053201;28;39469;-75
2022/08/25 00:46:19;;;;;;;8.20;7.18;;;23.10;99.90;;;;;;5055129;28;37737;-75
2022/08/25 00:48:50;;;;;;;8.50;7.60;;;23.00;99.90;;;;;;5053363;28;38631;-76
2022/08/25 00:51:31;;;;;;;9.25;8.35;;;23.00;99.90;;;;;;5053528;28;38246;-75
2022/08/25 00:53:57;;;;;;;10.23;9.02;;;22.90;99.90;;;;;;5056007;28;38505;-75
2022/08/25 00:56:24;;;;;;;9.13;8.27;;;22.90;99.90;;;;;;5036286;28;38941;-76
2022/08/25 00:58:51;;;;;;;10.43;9.43;;;22.90;99.90;;;;;;5036224;28;39753;-75
2022/08/25 01:01:17;;;;;;;9.35;8.30;;;22.80;99.90;;;;;;5050850;28;36986;-76
2022/08/25 01:03:43;;;;;;;9.48;8.57;;;22.80;99.90;;;;;;5050485;28;38997;-75
2022/08/25 01:06:10;;;;;;;9.52;8.60;;;22.80;99.90;;;;;;5050152;28;37109;-75
2022/08/25 01:08:37;;;;;;;8.85;8.05;;;22.80;99.90;;;;;;5051338;28;39046;-76
2022/08/25 01:11:07;;;;;;;8.45;7.55;;;22.70;99.90;;;;;;5049772;28;38120;-74
2022/08/25 01:13:41;;;;;;;11.15;9.25;;;22.70;99.90;;;;;;5050590;28;39939;-75
2022/08/25 01:16:08;;;;;;;8.80;7.90;;;22.70;99.90;;;;;;5047615;28;36566;-75
2022/08/25 01:18:50;;;;;;;10.40;8.23;;;22.60;99.90;;;;;;5038606;28;38903;-76
2022/08/25 01:21:18;;;;;;;9.50;8.18;;;22.60;99.90;;;;;;5051267;28;37472;-75
2022/08/25 01:23:46;;;;;;;8.10;7.40;;;22.60;99.90;;;;;;5031173;28;38702;-75
2022/08/25 01:26:22;;;;;;;8.50;7.70;;;22.60;99.90;;;;;;5047884;28;37335;-75
2022/08/25 01:31:36;;;;;;;9.40;8.07;;;22.50;99.90;;;;;;5063474;28;48107;-75
2022/08/25 01:34:05;;;;;;;8.55;7.78;;;22.50;99.90;;;;;;5056751;28;39410;-75
2022/08/25 01:36:32;;;;;;;8.13;7.25;;;22.50;99.90;;;;;;5075649;28;38011;-75
2022/08/25 01:38:58;;;;;;;8.30;7.50;;;22.50;99.90;;;;;;5057240;28;37777;-75
2022/08/25 01:41:33;;;;;;;10.18;8.23;;;22.50;99.90;;;;;;5036925;28;38938;-75
2022/08/25 01:44:01;;;;;;;9.30;8.43;;;22.40;99.90;;;;;;5056708;28;39875;-76
2022/08/25 01:46:27;;;;;;;8.63;7.80;;;22.50;99.90;;;;;;5070002;28;47048;-75
2022/08/25 01:48:53;;;;;;;9.45;8.60;;;22.50;99.90;;;;;;5072441;27;37902;-75
2022/08/25 01:51:24;;;;;;;9.02;8.05;;;22.40;99.90;;;;;;5052818;28;38001;-75
2022/08/25 01:53:50;;;;;;;8.82;7.28;;;22.40;99.90;;;;;;5071059;27;37305;-74
2022/08/25 01:56:17;;;;;;;7.35;6.70;;;22.40;99.90;;;;;;5071454;28;39420;-75
2022/08/25 01:58:47;;;;;;;7.75;7.15;;;22.30;99.90;;;;;;5076469;27;39931;-75
2022/08/25 02:01:17;;;;;;;7.75;7.05;;;22.20;99.90;;;;;;5054279;28;37374;-76
2022/08/25 02:03:47;;;;;;;7.43;6.75;;;22.20;99.90;;;;;;5074520;27;38799;-76
2022/08/25 02:06:17;;;;;;;8.93;8.10;;;22.10;99.90;;;;;;5068804;28;36882;-75
2022/08/25 02:08:43;;;;;;;8.63;7.72;;;22.10;99.90;;;;;;5076274;27;38018;-76
2022/08/25 02:11:13;;;;;;;8.38;7.55;;;22.10;99.90;;;;;;5052713;28;37470;-75
2022/08/25 02:13:40;;;;;;;9.63;7.72;;;22.00;99.90;;;;;;5049884;28;39518;-75
2022/08/25 02:16:08;;;;;;;7.82;7.05;;;22.00;99.90;;;;;;5077537;28;38106;-75
2022/08/25 02:18:35;;;;;;;8.05;7.28;;;22.00;99.90;;;;;;5074691;28;38806;-75
2022/08/25 02:21:02;;;;;;;9.15;7.75;;;22.00;99.90;;;;;;5071356;28;37151;-75
2022/08/25 02:23:28;;;;;;;7.10;6.50;;;21.90;99.90;;;;;;5055455;28;40434;-76
2022/08/25 02:25:56;;;;;;;8.55;7.78;;;21.90;99.90;;;;;;5051061;28;38472;-75
2022/08/25 02:28:22;;;;;;;8.68;7.78;;;21.90;99.90;;;;;;5071052;27;36714;-75
2022/08/25 02:30:49;;;;;;;7.78;7.07;;;21.90;99.90;;;;;;5070902;28;37003;-75
2022/08/25 02:33:15;;;;;;;7.43;6.78;;;21.90;99.90;;;;;;5052956;28;38086;-75
2022/08/25 02:35:41;;;;;;;7.88;7.18;;;21.90;99.90;;;;;;5071691;28;38256;-75
2022/08/25 02:38:07;;;;;;;8.63;7.32;;;21.80;99.90;;;;;;5075163;28;37483;-75
2022/08/25 02:40:34;;;;;;;8.05;7.25;;;21.80;99.90;;;;;;5075373;28;37400;-75
2022/08/25 02:43:01;;;;;;;8.07;7.28;;;21.80;99.90;;;;;;5072067;27;40173;-75
2022/08/25 02:45:27;;;;;;;8.77;7.40;;;21.70;99.90;;;;;;5054277;28;46908;-75
2022/08/25 02:47:53;;;;;;;8.55;6.40;;;21.70;99.90;;;;;;5058029;28;37813;-75
2022/08/25 02:50:19;;;;;;;9.90;8.95;;;21.70;99.90;;;;;;5059866;28;37741;-75
2022/08/25 02:52:47;;;;;;;8.50;7.60;;;21.70;99.90;;;;;;5052572;28;38993;-75
2022/08/25 02:55:13;;;;;;;9.10;7.70;;;21.70;99.90;;;;;;5066380;28;38363;-75
2022/08/25 02:57:40;;;;;;;7.95;7.25;;;21.70;99.90;;;;;;5070436;27;37634;-74
2022/08/25 03:00:09;;;;;;;8.82;7.93;;;21.70;99.90;;;;;;5048417;28;38480;-74
2022/08/25 03:02:36;;;;;;;9.60;8.68;;;21.70;99.90;;;;;;5068998;27;38871;-76
2022/08/25 03:05:04;;;;;;;8.88;8.07;;;21.70;99.90;;;;;;5070566;28;38162;-74
2022/08/25 03:07:30;;;;;;;8.38;7.57;;;21.70;99.90;;;;;;5076466;28;47802;-74
2022/08/25 03:09:56;;;;;;;9.27;7.65;;;21.60;99.90;;;;;;5069605;28;38177;-74
2022/08/25 03:12:22;;;;;;;8.70;7.75;;;21.60;99.90;;;;;;5048789;27;39177;-74
2022/08/25 03:14:48;;;;;;;8.55;7.68;;;21.60;99.90;;;;;;5069625;28;36766;-74
2022/08/25 03:17:14;;;;;;;9.35;7.97;;;21.50;99.90;;;;;;5070776;28;39081;-74
2022/08/25 03:19:40;;;;;;;10.82;7.70;;;21.50;99.90;;;;;;5063587;28;37526;-74
2022/08/25 03:22:07;;;;;;;10.70;8.40;;;21.50;99.90;;;;;;5052367;27;39977;-75
2022/08/25 03:24:33;;;;;;;9.70;8.80;;;21.40;99.90;;;;;;5072874;28;38410;-74
2022/08/25 03:26:59;;;;;;;10.18;8.50;;;21.40;99.90;;;;;;5058919;28;37286;-75
2022/08/25 03:29:29;;;;;;;8.85;8.00;;;21.40;99.90;;;;;;5072021;27;37472;-74
2022/08/25 03:31:57;;;;;;;9.88;8.88;;;21.40;99.90;;;;;;5073601;28;40650;-75
2022/08/25 03:34:23;;;;;;;9.63;8.68;;;21.40;99.90;;;;;;5075355;28;39430;-75
2022/08/25 03:36:51;;;;;;;9.98;8.90;;;21.30;99.90;;;;;;5058130;28;38180;-73
2022/08/25 03:39:20;;;;;;;9.25;8.35;;;21.30;99.90;;;;;;5072975;27;37034;-75
2022/08/25 03:41:46;;;;;;;10.57;8.82;;;21.20;99.90;;;;;;5070759;28;40519;-74
2022/08/25 03:44:13;;;;;;;10.80;9.18;;;21.20;99.90;;;;;;5056106;28;39737;-74
2022/08/25 03:46:42;;;;;;;12.50;10.68;;;21.20;99.90;;;;;;5054085;28;36672;-75
2022/08/25 03:49:12;;;;;;;9.35;8.35;;;21.20;99.90;;;;;;5056729;28;38423;-75
2022/08/25 03:51:47;;;;;;;11.07;9.98;;;21.20;99.90;;;;;;5072285;28;39765;-76
2022/08/25 03:54:18;;;;;;;11.65;10.55;;;21.10;99.90;;;;;;5053930;27;38038;-75
2022/08/25 03:56:44;;;;;;;15.60;11.52;;;21.10;99.90;;;;;;5058591;28;38182;-75
2022/08/25 03:59:11;;;;;;;10.00;9.10;;;21.10;99.90;;;;;;5038547;28;39064;-76
2022/08/25 04:01:39;;;;;;;11.18;10.18;;;21.00;99.90;;;;;;5050993;28;38802;-75
2022/08/25 04:04:07;;;;;;;10.30;9.40;;;20.90;99.90;;;;;;5043526;28;38758;-75
2022/08/25 04:06:33;;;;;;;10.88;9.77;;;20.80;99.90;;;;;;5069057;28;38969;-75
2022/08/25 04:09:00;;;;;;;12.35;9.95;;;20.80;99.90;;;;;;5076371;28;37273;-75
2022/08/25 04:11:27;;;;;;;13.15;10.65;;;20.80;99.90;;;;;;5060799;28;38591;-74
2022/08/25 04:13:56;;;;;;;11.60;10.50;;;20.70;99.90;;;;;;5075845;28;38281;-75
2022/08/25 04:16:25;;;;;;;11.38;10.27;;;20.70;99.90;;;;;;5077548;28;37745;-75
2022/08/25 04:18:53;;;;;;;11.55;10.32;;;20.60;99.90;;;;;;5054565;28;37701;-75
2022/08/25 04:21:21;;;;;;;14.48;12.35;;;20.60;99.90;;;;;;5048735;28;39293;-75
2022/08/25 04:23:51;;;;;;;13.07;11.70;;;20.60;99.90;;;;;;5053249;28;39296;-75
2022/08/25 04:26:21;;;;;;;11.13;10.02;;;20.50;99.90;;;;;;5049607;28;37251;-74
2022/08/25 04:28:47;;;;;;;12.43;11.20;;;20.50;99.90;;;;;;5049787;28;36343;-75
2022/08/25 04:31:14;;;;;;;11.48;10.38;;;20.50;99.90;;;;;;5046902;28;37844;-75
2022/08/25 04:33:41;;;;;;;13.25;11.00;;;20.50;99.90;;;;;;5053096;28;38808;-74
2022/08/25 04:36:10;;;;;;;10.85;9.80;;;20.40;99.90;;;;;;5052056;28;37329;-75
2022/08/25 04:38:37;;;;;;;11.25;10.25;;;20.40;99.90;;;;;;5052448;28;40372;-75
2022/08/25 04:41:06;;;;;;;12.38;11.13;;;20.40;99.90;;;;;;5048491;28;37175;-75
2022/08/25 04:43:33;;;;;;;10.95;10.00;;;20.30;99.90;;;;;;5048966;28;38957;-75
2022/08/25 04:46:05;;;;;;;10.50;9.50;;;20.30;99.90;;;;;;5047144;28;37719;-75
2022/08/25 04:48:32;;;;;;;11.35;10.13;;;20.30;99.90;;;;;;5051927;27;47992;-75
2022/08/25 04:51:02;;;;;;;11.32;10.02;;;20.30;99.90;;;;;;5054519;28;39227;-75
2022/08/25 04:53:29;;;;;;;12.23;10.23;;;20.30;99.90;;;;;;5054492;28;47062;-75
2022/08/25 04:55:55;;;;;;;12.23;10.88;;;20.30;99.90;;;;;;5053121;28;37925;-75
2022/08/25 04:58:21;;;;;;;12.02;10.82;;;20.20;99.90;;;;;;5055201;28;36591;-74
2022/08/25 05:00:47;;;;;;;11.98;10.77;;;20.20;99.90;;;;;;5053648;28;37828;-74
2022/08/25 05:03:13;;;;;;;13.55;12.02;;;20.20;99.90;;;;;;5054794;28;38974;-75
2022/08/25 05:05:39;;;;;;;11.18;10.07;;;20.30;99.90;;;;;;5048008;28;37213;-74
2022/08/25 05:08:05;;;;;;;10.98;9.88;;;20.30;99.90;;;;;;5071159;28;37538;-75
2022/08/25 05:10:32;;;;;;;12.55;11.25;;;20.30;99.90;;;;;;5058608;28;38041;-75
2022/08/25 05:12:59;;;;;;;13.27;11.48;;;20.20;99.90;;;;;;5069604;28;39324;-74
2022/08/25 05:18:10;;;;;;;15.50;11.55;;;20.30;99.90;;;;;;5054340;28;37859;-75
2022/08/25 05:20:37;;;;;;;12.38;11.18;;;20.30;99.90;;;;;;5063255;28;38349;-76
2022/08/25 05:23:04;;;;;;;11.00;9.90;;;20.30;99.90;;;;;;5066066;28;38761;-75
2022/08/25 05:25:31;;;;;;;11.80;10.70;;;20.30;99.90;;;;;;5057163;28;37150;-76
2022/08/25 05:27:57;;;;;;;11.77;10.20;;;20.30;99.90;;;;;;5072651;27;37977;-76
2022/08/25 05:30:23;;;;;;;11.93;10.02;;;20.30;99.90;;;;;;5076033;28;39048;-75
2022/08/25 05:32:49;;;;;;;10.52;9.52;;;20.30;99.90;;;;;;5058128;28;37521;-76
2022/08/25 05:35:16;;;;;;;11.77;10.68;;;20.40;99.90;;;;;;5079493;28;38441;-76
2022/08/25 05:37:42;;;;;;;11.73;10.52;;;20.40;99.90;;;;;;5077123;28;37090;-77
2022/08/25 05:40:09;;;;;;;10.65;9.65;;;20.40;99.90;;;;;;5059301;28;37445;-76
2022/08/25 05:42:36;;;;;;;11.13;10.00;;;20.40;99.90;;;;;;5075314;27;38688;-76
2022/08/25 05:45:03;;;;;;;11.80;10.60;;;20.40;99.90;;;;;;5069532;28;37395;-76
2022/08/25 05:47:29;;;;;;;11.52;9.23;;;20.40;99.90;;;;;;5051389;28;37332;-76
2022/08/25 05:49:56;;;;;;;10.07;9.18;;;20.50;99.90;;;;;;5055161;28;39679;-76
2022/08/25 05:52:22;;;;;;;15.25;11.25;;;20.50;99.90;;;;;;5038227;28;38100;-77
2022/08/25 05:54:48;;;;;;;9.70;8.70;;;20.40;99.90;;;;;;5053584;28;39177;-75
2022/08/25 05:57:14;;;;;;;11.18;10.07;;;20.50;99.90;;;;;;5054621;28;35843;-75
2022/08/25 05:59:40;;;;;;;11.52;8.48;;;20.50;99.90;;;;;;5051976;28;39010;-74
2022/08/25 06:04:51;;;;;;;9.32;8.38;;;20.60;99.90;;;;;;5054969;28;38364;-76
2022/08/25 06:07:17;;;;;;;10.05;8.52;;;20.60;99.90;;;;;;5037894;28;38299;-75
2022/08/25 06:09:45;;;;;;;11.98;8.55;;;20.70;99.90;;;;;;5038450;28;38026;-76
2022/08/25 06:12:11;;;;;;;12.77;9.82;;;20.70;99.90;;;;;;5037866;28;39037;-77
2022/08/25 06:14:38;;;;;;;11.90;8.60;;;20.70;99.90;;;;;;5039675;28;38942;-77
2022/08/25 06:17:04;;;;;;;17.00;9.43;;;20.70;99.90;;;;;;5053863;28;38059;-78
2022/08/25 06:19:31;;;;;;;10.63;8.70;;;20.80;99.90;;;;;;5056511;28;21404;-78
2022/08/25 06:21:57;;;;;;;9.38;8.48;;;20.80;99.90;;;;;;5055324;28;39122;-77
2022/08/25 06:24:28;;;;;;;9.02;7.80;;;20.90;99.90;;;;;;5054637;28;38188;-77
2022/08/25 06:26:55;;;;;;;12.15;9.23;;;21.00;99.90;;;;;;5055420;28;35929;-77
2022/08/25 06:29:21;;;;;;;12.43;9.13;;;21.10;99.90;;;;;;5056637;28;38755;-77
2022/08/25 06:31:48;;;;;;;8.20;7.40;;;21.20;99.90;;;;;;5034901;28;37806;-77
2022/08/25 06:34:16;;;;;;;9.57;8.55;;;21.40;99.90;;;;;;5040465;28;38423;-77
2022/08/25 06:36:42;;;;;;;14.20;8.32;;;21.50;99.90;;;;;;5057462;28;38412;-77
2022/08/25 06:39:08;;;;;;;10.60;8.07;;;21.50;99.90;;;;;;5058767;28;38305;-77
2022/08/25 06:41:35;;;;;;;11.10;8.02;;;21.50;99.90;;;;;;5059664;28;38211;-76
2022/08/25 06:44:02;;;;;;;11.75;8.18;;;21.70;99.90;;;;;;5060343;28;37838;-76
2022/08/25 06:46:29;;;;;;;18.38;8.20;;;21.70;99.90;;;;;;5080751;28;48588;-77
2022/08/25 06:48:56;;;;;;;23.13;8.90;;;21.90;99.90;;;;;;5064607;28;39640;-77
2022/08/25 06:51:25;;;;;;;15.77;7.70;;;22.00;99.90;;;;;;5063851;28;38654;-76
2022/08/25 06:53:52;;;;;;;14.95;6.85;;;22.20;99.90;;;;;;5074961;28;37854;-77
2022/08/25 06:56:20;;;;;;;21.85;8.60;;;22.30;99.90;;;;;;5058174;28;39636;-77
2022/08/25 06:58:47;;;;;;;18.40;9.13;;;22.50;99.90;;;;;;5058749;28;39052;-77
2022/08/25 07:01:22;;;;;;;12.25;8.23;;;22.60;99.90;;;;;;5073648;28;38360;-77
2022/08/25 07:03:49;;;;;;;13.73;7.32;;;22.70;99.90;;;;;;5076850;28;37838;-77
2022/08/25 07:06:17;;;;;;;9.32;7.25;;;22.80;99.90;;;;;;5076523;28;39054;-76
2022/08/25 07:08:44;;;;;;;8.23;7.35;;;22.90;99.90;;;;;;5075797;27;40162;-77
2022/08/25 07:11:11;;;;;;;9.77;7.20;;;22.90;99.90;;;;;;5057014;28;38585;-77
2022/08/25 07:13:38;;;;;;;9.68;7.40;;;22.90;99.90;;;;;;5078837;28;37794;-77
2022/08/25 07:16:05;;;;;;;12.43;7.18;;;23.00;99.90;;;;;;5074129;28;38227;-77
2022/08/25 07:18:32;;;;;;;16.80;7.15;;;23.00;99.90;;;;;;5052483;28;39264;-77
2022/08/25 07:20:58;;;;;;;12.85;7.00;;;23.20;99.90;;;;;;5061645;28;38827;-78
2022/08/25 07:23:26;;;;;;;11.88;7.10;;;23.40;99.90;;;;;;5052071;27;38954;-77
2022/08/25 07:25:52;;;;;;;10.00;6.93;;;23.60;99.90;;;;;;5056075;28;37406;-77
2022/08/25 07:28:21;;;;;;;14.52;7.68;;;23.80;99.90;;;;;;5058061;28;39893;-77
2022/08/25 07:30:50;;;;;;;8.95;6.95;;;24.00;99.90;;;;;;5076915;28;37796;-77
2022/08/25 07:33:16;;;;;;;8.05;6.65;;;24.10;99.90;;;;;;5056053;28;37745;-77
2022/08/25 07:35:42;;;;;;;11.45;7.40;;;24.30;99.90;;;;;;5054659;28;38450;-77
2022/08/25 07:38:08;;;;;;;9.95;6.85;;;24.30;99.90;;;;;;5052988;28;40307;-77
2022/08/25 07:40:37;;;;;;;8.02;5.70;;;24.40;99.90;;;;;;5060536;28;38447;-78
2022/08/25 07:43:07;;;;;;;13.68;6.63;;;24.60;99.90;;;;;;5050582;28;39394;-78
2022/08/25 07:45:35;;;;;;;15.32;6.15;;;24.80;99.90;;;;;;5055306;28;38002;-77
2022/08/25 07:48:10;;;;;;;8.73;5.40;;;25.00;99.90;;;;;;5056522;27;39768;-77
2022/08/25 07:50:42;;;;;;;9.60;5.63;;;25.20;99.90;;;;;;5057474;28;47162;-82
2022/08/25 07:53:09;;;;;;;7.60;5.63;;;25.30;99.90;;;;;;5051809;28;38933;-76
2022/08/25 07:55:36;;;;;;;8.68;5.60;;;25.30;99.90;;;;;;5074225;28;36721;-77
2022/08/25 07:58:04;;;;;;;13.18;5.57;;;25.50;99.90;;;;;;5055628;27;38372;-77
2022/08/25 08:00:32;;;;;;;5.68;4.82;;;25.50;99.90;;;;;;5063672;28;38635;-77
2022/08/25 08:03:01;;;;;;;9.52;5.68;;;25.50;99.90;;;;;;5065119;28;39402;-77
2022/08/25 08:05:27;;;;;;;11.23;4.70;;;25.30;99.90;;;;;;5064112;28;47033;-77
2022/08/25 08:07:55;;;;;;;9.45;5.32;;;25.20;99.90;;;;;;5080337;27;38551;-77
2022/08/25 08:10:22;;;;;;;9.10;4.75;;;25.10;99.90;;;;;;5068711;28;38563;-77
2022/08/25 08:12:48;;;;;;;9.80;4.53;;;25.30;99.90;;;;;;5063217;28;38034;-77
2022/08/25 08:15:14;;;;;;;7.28;4.80;;;25.60;99.90;;;;;;5055920;28;37883;-77
2022/08/25 08:17:41;;;;;;;8.48;4.00;;;25.80;99.90;;;;;;5062523;28;39389;-77
2022/08/25 08:20:09;;;;;;;8.02;3.83;;;26.00;99.90;;;;;;5062191;28;38511;-77
2022/08/25 08:22:39;;;;;;;16.40;5.35;;;26.20;99.90;;;;;;5061795;28;38317;-77
2022/08/25 08:25:08;;;;;;;11.68;4.15;;;26.40;99.90;;;;;;5058522;28;37169;-77
2022/08/25 08:27:34;;;;;;;9.75;3.90;;;26.30;99.90;;;;;;5037032;28;39147;-77
2022/08/25 08:30:01;;;;;;;7.90;4.38;;;26.20;99.90;;;;;;5058964;28;40074;-77
2022/08/25 08:32:27;;;;;;;10.25;3.75;;;26.10;99.90;;;;;;5039678;28;39853;-77
2022/08/25 08:34:53;;;;;;;7.43;3.63;;;26.00;99.90;;;;;;5064231;28;37574;-77
2022/08/25 08:37:21;;;;;;;11.70;4.35;;;26.00;99.90;;;;;;5048837;28;38775;-77
2022/08/25 08:39:47;;;;;;;5.82;3.20;;;26.10;99.90;;;;;;5061759;28;39536;-77
2022/08/25 08:42:44;;;;;;;6.97;3.25;;;26.20;99.90;;;;;;5061883;28;38967;-76
2022/08/25 08:45:31;;;;;;;7.40;3.65;;;26.30;99.90;;;;;;5064185;28;37605;-76
2022/08/25 08:48:31;;;;;;;4.45;2.80;;;26.40;99.90;;;;;;5062111;28;38685;-77
2022/08/25 08:51:14;;;;;;;6.72;3.28;;;26.60;99.90;;;;;;5079678;28;47272;-77
2022/08/25 08:54:08;;;;;;;6.82;3.45;;;26.80;99.90;;;;;;5061889;28;49040;-76
2022/08/25 08:56:39;;;;;;;4.60;3.13;;;26.90;99.90;;;;;;5081638;28;48721;-77
2022/08/25 08:59:18;;;;;;;7.95;3.22;;;26.90;99.90;;;;;;5067179;28;40613;-76
2022/08/25 09:02:00;;;;;;;10.13;2.70;;;26.90;99.90;;;;;;5070865;28;38654;-76
2022/08/25 09:04:50;;;;;;;5.90;2.97;;;26.70;99.90;;;;;;5063841;28;39297;-77
2022/08/25 09:07:22;;;;;;;3.72;2.90;;;26.60;99.90;;;;;;5042930;28;37675;-76
2022/08/25 09:09:50;;;;;;;5.55;2.90;;;26.70;99.90;;;;;;5046102;28;39063;-76
2022/08/25 09:12:40;;;;;;;4.35;2.70;;;26.80;99.90;;;;;;5063165;28;38964;-76
2022/08/25 09:16:53;;;;;;;8.23;2.47;;;27.00;99.90;;;;;;5063600;28;38520;-76
2022/08/25 09:18:56;;;;;;;5.72;2.85;;;27.00;99.90;;;;;;5057920;28;36708;-76
2022/08/25 09:21:38;;;;;;;9.13;2.63;;;27.20;99.90;;;;;;5062051;28;38951;-76
2022/08/25 09:24:17;;;;;;;5.97;2.60;;;27.40;99.90;;;;;;5050594;28;39772;-76
2022/08/25 09:27:15;;;;;;;17.65;4.18;;;27.60;99.90;;;;;;5063065;28;37306;-78
2022/08/25 09:29:59;;;;;;;8.25;2.72;;;27.80;99.90;;;;;;5033360;28;49060;-77
2022/08/25 09:32:38;;;;;;;9.05;2.88;;;27.80;99.90;;;;;;5058023;28;40587;-77
2022/08/25 09:35:06;;;;;;;4.20;2.63;;;28.00;99.90;;;;;;5079197;28;39081;-77
2022/08/25 09:37:32;;;;;;;6.15;2.30;;;28.00;99.90;;;;;;5078938;27;38581;-77
2022/08/25 09:39:58;;;;;;;4.38;2.30;;;28.30;99.90;;;;;;5061077;28;37954;-77
2022/08/25 09:42:45;;;;;;;4.80;2.63;;;28.40;99.90;;;;;;5063213;28;39989;-77
2022/08/25 09:45:13;;;;;;;5.68;2.92;;;28.80;99.90;;;;;;5073556;27;39965;-77
2022/08/25 09:47:44;;;;;;;5.05;2.58;;;28.80;99.90;;;;;;5082951;27;36501;-78
2022/08/25 09:50:17;;;;;;;7.20;2.53;;;28.90;99.90;;;;;;5081121;28;38229;-81
2022/08/25 09:52:44;;;;;;;5.80;2.28;;;29.20;99.90;;;;;;5083878;28;38554;-79
2022/08/25 09:55:13;;;;;;;6.70;2.60;;;29.20;99.90;;;;;;5067556;28;39384;-78
2022/08/25 09:57:42;;;;;;;5.95;3.35;;;29.20;99.90;;;;;;5061585;28;37471;-79
2022/08/25 10:00:11;;;;;;;6.80;2.70;;;29.00;99.90;;;;;;5081415;28;37178;-79
2022/08/25 10:02:37;;;;;;;4.40;2.40;;;29.20;99.90;;;;;;5077192;28;38900;-79
2022/08/25 10:05:19;;;;;;;5.53;2.60;;;29.30;99.90;;;;;;5042230;28;37446;-79
2022/08/25 10:07:54;;;;;;;4.55;2.55;;;29.50;99.90;;;;;;5062484;28;48828;-79
2022/08/25 10:10:33;;;;;;;6.65;2.78;;;29.50;99.90;;;;;;5043942;28;35596;-79
2022/08/25 10:13:02;;;;;;;6.97;2.65;;;29.30;99.90;;;;;;5054413;28;39498;-79
2022/08/25 10:15:30;;;;;;;8.63;2.58;;;29.50;99.90;;;;;;5059035;28;48629;-79
2022/08/25 10:18:24;;;;;;;8.55;2.78;;;29.50;99.90;;;;;;5073024;28;39030;-80
2022/08/25 10:21:12;;;;;;;5.00;2.13;;;29.40;99.90;;;;;;5077060;28;48445;-78
2022/08/25 10:23:50;;;;;;;4.72;2.38;;;29.70;99.90;;;;;;5061064;28;47125;-78
2022/08/25 10:26:34;;;;;;;4.88;2.88;;;30.10;99.90;;;;;;5056069;28;38769;-79
2022/08/25 10:29:00;;;;;;;16.25;3.95;;;30.10;99.90;;;;;;5057351;28;38372;-79
2022/08/25 10:31:40;;;;;;;5.38;2.53;;;29.90;99.90;;;;;;5064011;28;47210;-78
2022/08/25 10:34:41;;;;;;;4.88;2.42;;;29.90;99.90;;;;;;5063322;28;39648;-79
2022/08/25 10:37:25;;;;;;;5.20;2.13;;;29.90;99.90;;;;;;5044747;28;37794;-79
2022/08/25 10:40:14;;;;;;;4.20;2.05;;;30.40;99.90;;;;;;5079170;28;38996;-79
2022/08/25 10:43:09;;;;;;;7.88;2.40;;;30.60;99.90;;;;;;5080789;28;48313;-79
2022/08/25 10:45:50;;;;;;;5.20;2.55;;;30.90;99.90;;;;;;5083885;28;48521;-79
2022/08/25 10:49:06;;;;;;;25.27;4.68;;;30.60;99.90;;;;;;5069555;28;38254;-79
2022/08/25 10:51:53;;;;;;;7.90;2.40;;;30.60;99.90;;;;;;5018124;28;47198;-80
2022/08/25 10:54:32;;;;;;;6.90;2.17;;;30.30;99.90;;;;;;5064391;28;37812;-80
2022/08/25 10:57:31;;;;;;;8.68;2.25;;;30.80;99.90;;;;;;5075726;28;39678;-80
2022/08/25 11:00:09;;;;;;;8.43;2.30;;;31.00;99.90;;;;;;5073091;28;48110;-80
2022/08/25 11:03:05;;;;;;;5.30;2.13;;;31.30;99.90;;;;;;5073961;28;47996;-80
2022/08/25 11:06:13;;;;;;;4.93;2.40;;;31.50;99.90;;;;;;5077470;27;47273;-79
2022/08/25 11:08:45;;;;;;;7.22;1.80;;;31.50;99.90;;;;;;4980990;28;47074;-80
2022/08/25 11:12:02;;;;;;;1.90;1.60;;;31.30;99.90;;;;;;5057885;28;38135;-79
2022/08/25 11:14:34;;;;;;;7.35;1.88;;;31.10;99.90;;;;;;4968217;28;47194;-78
2022/08/25 11:17:10;;;;;;;3.03;1.83;;;31.10;99.90;;;;;;5059003;28;38176;-78
2022/08/25 11:19:39;;;;;;;6.85;2.55;;;31.10;99.90;;;;;;5073422;27;48846;-78
2022/08/25 11:22:34;;;;;;;2.97;1.70;;;31.00;99.90;;;;;;5073757;28;39792;-78
2022/08/25 11:25:17;;;;;;;5.13;1.90;;;31.10;99.90;;;;;;5063941;28;38579;-78
2022/08/25 11:28:08;;;;;;;12.70;2.13;;;31.10;99.90;;;;;;5079222;27;48470;-77
2022/08/25 11:30:35;;;;;;;5.05;2.03;;;31.10;99.90;;;;;;5079926;28;48702;-78
2022/08/25 11:33:01;;;;;;;4.68;2.00;;;31.20;99.90;;;;;;5061641;28;38640;-77
2022/08/25 11:35:55;;;;;;;5.80;2.00;;;31.50;99.90;;;;;;5078723;28;48687;-77
2022/08/25 11:38:47;;;;;;;4.75;2.22;;;31.70;99.90;;;;;;5074755;28;38269;-77
2022/08/25 11:41:19;;;;;;;;;;;32.10;99.90;;;;;;5061251;28;40806;-77
2022/08/25 11:43:48;;;;;;;3.88;2.00;;;32.40;99.90;;;;;;5079754;27;37067;-77
2022/08/25 11:46:20;;;;;;;3.45;1.90;;;32.70;99.90;;;;;;5080687;27;38086;-77
2022/08/25 11:48:58;;;;;;;4.72;2.15;;;32.80;99.90;;;;;;5083283;27;35993;-77
2022/08/25 11:51:32;;;;;;;2.75;1.67;;;32.90;99.90;;;;;;5076970;28;38867;-76
2022/08/25 11:54:27;;;;;;;2.88;1.77;;;32.80;99.90;;;;;;5081134;28;38271;-78
2022/08/25 11:57:06;;;;;;;3.78;1.67;;;32.10;99.90;;;;;;5080450;28;47188;-77
2022/08/25 12:00:01;;;;;;;2.88;1.98;;;32.10;99.90;;;;;;5065009;28;47481;-78
2022/08/25 12:02:46;;;;;;;6.78;2.00;;;32.60;99.90;;;;;;5086604;28;39251;-78
2022/08/25 12:05:18;;;;;;;2.97;1.80;;;32.40;99.90;;;;;;5081428;28;38263;-79
2022/08/25 12:07:47;;;;;;;6.10;2.40;;;32.90;99.90;;;;;;5082077;27;38518;-78
2022/08/25 12:10:19;;;;;;;3.33;1.92;;;32.80;99.90;;;;;;5086278;28;37419;-76
2022/08/25 12:12:45;;;;;;;5.53;1.90;;;33.10;99.90;;;;;;5086314;27;39424;-76
2022/08/25 12:15:41;;;;;;;4.82;2.00;;;33.00;99.90;;;;;;5085132;28;38463;-76
2022/08/25 12:18:21;;;;;;;3.65;2.08;;;33.30;99.90;;;;;;5072066;28;39009;-76
2022/08/25 12:20:56;;;;;;;4.10;2.25;;;33.40;99.90;;;;;;5066459;28;38050;-76
2022/08/25 12:23:32;;;;;;;6.45;1.80;;;33.40;99.90;;;;;;5082164;27;38783;-75
2022/08/25 12:26:11;;;;;;;4.70;2.22;;;33.50;99.90;;;;;;5064275;28;39226;-77
2022/08/25 12:28:55;;;;;;;3.83;1.67;;;32.80;99.90;;;;;;5086406;27;46949;-76
2022/08/25 12:31:50;;;;;;;3.88;1.85;;;32.60;99.90;;;;;;5058639;28;38360;-76
2022/08/25 12:34:25;;;;;;;3.00;1.90;;;32.40;99.90;;;;;;5080723;28;39674;-77
2022/08/25 12:37:03;;;;;;;5.00;2.00;;;32.80;99.90;;;;;;5081176;28;38262;-76
2022/08/25 12:39:47;;;;;;;7.10;2.10;;;33.00;99.90;;;;;;5073101;28;48516;-76
2022/08/25 12:42:31;;;;;;;8.52;2.35;;;33.30;99.90;;;;;;5072719;27;37806;-76
2022/08/25 12:45:29;;;;;;;3.55;2.00;;;33.20;99.90;;;;;;5083007;28;40559;-75
2022/08/25 12:48:27;;;;;;;6.25;1.92;;;33.50;99.90;;;;;;5064146;28;49081;-75
2022/08/25 12:51:15;;;;;;;2.17;1.55;;;33.70;99.90;;;;;;5083303;28;48602;-76
2022/08/25 12:53:50;;;;;;;7.45;2.28;;;33.60;99.90;;;;;;5059940;28;46162;-76
2022/08/25 12:56:34;;;;;;;4.93;1.80;;;33.70;99.90;;;;;;5080361;28;38969;-77
2022/08/25 12:59:21;;;;;;;7.63;2.25;;;33.90;99.90;;;;;;5073071;28;39540;-76
2022/08/25 13:02:32;;;;;;;5.25;2.17;;;33.90;99.90;;;;;;5074787;28;48561;-76
2022/08/25 13:05:16;;;;;;;3.65;2.10;;;33.60;99.90;;;;;;5061574;28;47756;-76
2022/08/25 13:08:05;;;;;;;5.05;2.20;;;33.70;99.90;;;;;;5079204;27;48837;-76
2022/08/25 13:10:56;;;;;;;5.38;2.50;;;33.40;99.90;;;;;;5064926;28;46984;-75
2022/08/25 13:13:54;;;;;;;5.97;2.45;;;33.50;99.90;;;;;;5064053;28;41473;-76
2022/08/25 13:16:23;;;;;;;3.72;2.17;;;33.60;99.90;;;;;;5074257;28;38129;-76
2022/08/25 13:18:49;;;;;;;10.80;2.90;;;33.80;99.90;;;;;;5080709;27;39336;-76